sensor_id;sensor_type;location;lat;lon;timestamp;temperature;humidity
37285;DHT22;23172;53.550;9.964;2023-05-16T00:04:34;14.70;67.30
37285;DHT22;23172;53.550;9.964;2023-05-16T00:09:36;14.70;67.30
37285;DHT22;23172;53.550;9.964;2023-05-16T00:14:38;14.60;67.20
37285;DHT22;23172;53.550;9.964;2023-05-16T00:19:42;14.70;67.30
37285;DHT22;23172;53.550;9.964;2023-05-16T00:24:44;14.70;67.00
37285;DHT22;23172;53.550;9.964;2023-05-16T00:29:45;14.70;66.80
37285;DHT22;23172;53.550;9.964;2023-05-16T00:34:49;14.70;66.60
37285;DHT22;23172;53.550;9.964;2023-05-16T00:39:50;14.60;66.70
37285;DHT22;23172;53.550;9.964;2023-05-16T00:44:52;14.60;66.90
37285;DHT22;23172;53.550;9.964;2023-05-16T00:49:56;14.70;66.80
37285;DHT22;23172;53.550;9.964;2023-05-16T00:54:58;14.80;66.50
37285;DHT22;23172;53.550;9.964;2023-05-16T01:00:00;14.80;66.40
37285;DHT22;23172;53.550;9.964;2023-05-16T01:05:04;15.00;66.20
37285;DHT22;23172;53.550;9.964;2023-05-16T01:10:07;15.00;66.10
37285;DHT22;23172;53.550;9.964;2023-05-16T01:15:13;15.00;66.00
37285;DHT22;23172;53.550;9.964;2023-05-16T01:20:27;15.10;66.00
37285;DHT22;23172;53.550;9.964;2023-05-16T01:25:44;15.00;66.20
37285;DHT22;23172;53.550;9.964;2023-05-16T01:30:52;15.00;66.70
37285;DHT22;23172;53.550;9.964;2023-05-16T01:35:58;15.00;66.80
37285;DHT22;23172;53.550;9.964;2023-05-16T01:41:04;15.00;67.10
37285;DHT22;23172;53.550;9.964;2023-05-16T01:46:12;14.90;67.40
37285;DHT22;23172;53.550;9.964;2023-05-16T01:51:15;15.10;68.20
37285;DHT22;23172;53.550;9.964;2023-05-16T01:56:17;15.10;68.00
37285;DHT22;23172;53.550;9.964;2023-05-16T02:01:20;14.90;69.00
37285;DHT22;23172;53.550;9.964;2023-05-16T02:06:23;14.80;69.20
37285;DHT22;23172;53.550;9.964;2023-05-16T02:11:25;14.80;69.40
37285;DHT22;23172;53.550;9.964;2023-05-16T02:16:28;14.60;69.50
37285;DHT22;23172;53.550;9.964;2023-05-16T02:21:31;14.50;69.80
37285;DHT22;23172;53.550;9.964;2023-05-16T02:26:32;14.50;69.70
37285;DHT22;23172;53.550;9.964;2023-05-16T02:31:35;14.50;69.10
37285;DHT22;23172;53.550;9.964;2023-05-16T02:36:37;14.40;69.20
37285;DHT22;23172;53.550;9.964;2023-05-16T02:41:39;14.30;69.10
37285;DHT22;23172;53.550;9.964;2023-05-16T02:46:42;14.20;69.40
37285;DHT22;23172;53.550;9.964;2023-05-16T02:51:44;14.20;69.60
37285;DHT22;23172;53.550;9.964;2023-05-16T02:56:46;14.30;68.70
37285;DHT22;23172;53.550;9.964;2023-05-16T03:01:49;14.20;68.20
37285;DHT22;23172;53.550;9.964;2023-05-16T03:06:51;14.30;67.80
37285;DHT22;23172;53.550;9.964;2023-05-16T03:11:53;14.30;67.30
37285;DHT22;23172;53.550;9.964;2023-05-16T03:16:57;14.20;66.90
37285;DHT22;23172;53.550;9.964;2023-05-16T03:21:59;14.20;66.80
37285;DHT22;23172;53.550;9.964;2023-05-16T03:27:00;14.20;66.60
37285;DHT22;23172;53.550;9.964;2023-05-16T03:32:04;14.10;66.30
37285;DHT22;23172;53.550;9.964;2023-05-16T03:37:06;14.00;66.30
37285;DHT22;23172;53.550;9.964;2023-05-16T03:42:10;14.00;66.30
37285;DHT22;23172;53.550;9.964;2023-05-16T03:47:13;14.10;66.00
37285;DHT22;23172;53.550;9.964;2023-05-16T03:52:15;14.10;65.90
37285;DHT22;23172;53.550;9.964;2023-05-16T03:57:17;14.10;65.70
37285;DHT22;23172;53.550;9.964;2023-05-16T04:02:20;14.20;65.60
37285;DHT22;23172;53.550;9.964;2023-05-16T04:07:22;14.10;66.30
37285;DHT22;23172;53.550;9.964;2023-05-16T04:12:24;14.00;65.60
37285;DHT22;23172;53.550;9.964;2023-05-16T04:17:27;14.00;66.00
37285;DHT22;23172;53.550;9.964;2023-05-16T04:22:29;14.00;65.80
37285;DHT22;23172;53.550;9.964;2023-05-16T04:27:31;14.00;65.50
37285;DHT22;23172;53.550;9.964;2023-05-16T04:32:34;14.00;65.00
37285;DHT22;23172;53.550;9.964;2023-05-16T04:37:36;13.80;64.80
37285;DHT22;23172;53.550;9.964;2023-05-16T04:42:38;13.80;65.00
37285;DHT22;23172;53.550;9.964;2023-05-16T04:47:41;13.80;64.60
37285;DHT22;23172;53.550;9.964;2023-05-16T04:52:43;13.90;64.30
37285;DHT22;23172;53.550;9.964;2023-05-16T04:57:45;14.00;63.90
37285;DHT22;23172;53.550;9.964;2023-05-16T05:02:48;14.00;63.50
37285;DHT22;23172;53.550;9.964;2023-05-16T05:07:50;14.10;63.00
37285;DHT22;23172;53.550;9.964;2023-05-16T05:12:52;14.10;61.90
37285;DHT22;23172;53.550;9.964;2023-05-16T05:17:55;14.00;61.80
37285;DHT22;23172;53.550;9.964;2023-05-16T05:22:57;13.90;61.00
37285;DHT22;23172;53.550;9.964;2023-05-16T05:27:59;14.00;60.90
37285;DHT22;23172;53.550;9.964;2023-05-16T05:33:02;14.00;60.40
37285;DHT22;23172;53.550;9.964;2023-05-16T05:38:04;14.00;60.60
37285;DHT22;23172;53.550;9.964;2023-05-16T05:43:06;14.00;60.50
37285;DHT22;23172;53.550;9.964;2023-05-16T05:48:09;14.20;60.50
37285;DHT22;23172;53.550;9.964;2023-05-16T05:53:11;14.40;60.20
37285;DHT22;23172;53.550;9.964;2023-05-16T05:58:13;14.60;59.80
37285;DHT22;23172;53.550;9.964;2023-05-16T06:03:17;14.70;59.30
37285;DHT22;23172;53.550;9.964;2023-05-16T06:08:20;14.70;59.20
37285;DHT22;23172;53.550;9.964;2023-05-16T06:13:22;14.70;58.80
37285;DHT22;23172;53.550;9.964;2023-05-16T06:18:25;14.70;58.40
37285;DHT22;23172;53.550;9.964;2023-05-16T06:23:27;14.70;58.20
37285;DHT22;23172;53.550;9.964;2023-05-16T06:28:29;14.70;57.80
37285;DHT22;23172;53.550;9.964;2023-05-16T06:33:32;14.70;57.90
37285;DHT22;23172;53.550;9.964;2023-05-16T06:38:34;14.70;57.80
37285;DHT22;23172;53.550;9.964;2023-05-16T06:43:36;14.90;57.90
37285;DHT22;23172;53.550;9.964;2023-05-16T06:48:40;14.90;57.70
37285;DHT22;23172;53.550;9.964;2023-05-16T06:53:41;15.00;57.40
37285;DHT22;23172;53.550;9.964;2023-05-16T06:58:43;15.20;56.90
37285;DHT22;23172;53.550;9.964;2023-05-16T07:03:46;15.40;55.90
37285;DHT22;23172;53.550;9.964;2023-05-16T07:08:48;15.60;55.00
37285;DHT22;23172;53.550;9.964;2023-05-16T07:13:50;15.50;54.50
37285;DHT22;23172;53.550;9.964;2023-05-16T07:18:53;15.30;54.40
37285;DHT22;23172;53.550;9.964;2023-05-16T07:23:55;15.40;54.40
37285;DHT22;23172;53.550;9.964;2023-05-16T07:28:57;15.80;53.80
37285;DHT22;23172;53.550;9.964;2023-05-16T07:34:00;16.20;51.90
37285;DHT22;23172;53.550;9.964;2023-05-16T07:39:02;16.30;51.60
37285;DHT22;23172;53.550;9.964;2023-05-16T07:44:04;16.20;50.80
37285;DHT22;23172;53.550;9.964;2023-05-16T07:49:08;16.40;50.40
37285;DHT22;23172;53.550;9.964;2023-05-16T07:54:09;17.00;49.70
37285;DHT22;23172;53.550;9.964;2023-05-16T07:59:11;17.50;48.10
37285;DHT22;23172;53.550;9.964;2023-05-16T08:04:15;17.50;47.30
37285;DHT22;23172;53.550;9.964;2023-05-16T08:09:16;17.50;46.90
37285;DHT22;23172;53.550;9.964;2023-05-16T08:14:18;18.90;46.30
37285;DHT22;23172;53.550;9.964;2023-05-16T08:19:22;21.90;44.50
37285;DHT22;23172;53.550;9.964;2023-05-16T08:24:23;24.10;39.60
37285;DHT22;23172;53.550;9.964;2023-05-16T08:29:25;25.20;37.90
37285;DHT22;23172;53.550;9.964;2023-05-16T08:34:29;23.70;37.80
37285;DHT22;23172;53.550;9.964;2023-05-16T08:39:31;23.90;39.30
37285;DHT22;23172;53.550;9.964;2023-05-16T08:44:33;28.70;35.60
37285;DHT22;23172;53.550;9.964;2023-05-16T08:49:38;30.40;31.50
37285;DHT22;23172;53.550;9.964;2023-05-16T08:54:41;27.00;31.60
37285;DHT22;23172;53.550;9.964;2023-05-16T08:59:44;24.80;33.80
37285;DHT22;23172;53.550;9.964;2023-05-16T09:04:47;29.60;30.70
37285;DHT22;23172;53.550;9.964;2023-05-16T09:09:50;34.50;27.20
37285;DHT22;23172;53.550;9.964;2023-05-16T09:14:51;37.10;23.90
37285;DHT22;23172;53.550;9.964;2023-05-16T09:19:55;37.90;22.70
37285;DHT22;23172;53.550;9.964;2023-05-16T09:24:59;38.30;22.00
37285;DHT22;23172;53.550;9.964;2023-05-16T09:30:01;40.20;20.90
37285;DHT22;23172;53.550;9.964;2023-05-16T09:35:10;42.30;19.80
37285;DHT22;23172;53.550;9.964;2023-05-16T09:40:15;39.80;18.50
37285;DHT22;23172;53.550;9.964;2023-05-16T09:45:20;38.10;19.80
37285;DHT22;23172;53.550;9.964;2023-05-16T09:50:24;38.30;18.80
37285;DHT22;23172;53.550;9.964;2023-05-16T09:55:26;34.80;19.30
37285;DHT22;23172;53.550;9.964;2023-05-16T10:00:29;31.00;21.20
37285;DHT22;23172;53.550;9.964;2023-05-16T10:05:33;28.50;23.00
37285;DHT22;23172;53.550;9.964;2023-05-16T10:10:37;29.20;23.90
37285;DHT22;23172;53.550;9.964;2023-05-16T10:15:39;27.60;25.40
37285;DHT22;23172;53.550;9.964;2023-05-16T10:20:45;26.50;26.50
37285;DHT22;23172;53.550;9.964;2023-05-16T10:25:48;25.60;27.40
37285;DHT22;23172;53.550;9.964;2023-05-16T10:30:50;25.80;27.80
37285;DHT22;23172;53.550;9.964;2023-05-16T10:35:54;31.20;25.50
37285;DHT22;23172;53.550;9.964;2023-05-16T10:40:57;36.00;22.80
37285;DHT22;23172;53.550;9.964;2023-05-16T10:46:02;35.10;21.80
37285;DHT22;23172;53.550;9.964;2023-05-16T10:51:32;32.70;22.90
37285;DHT22;23172;53.550;9.964;2023-05-16T10:56:35;30.80;23.20
37285;DHT22;23172;53.550;9.964;2023-05-16T11:01:39;28.30;24.40
37285;DHT22;23172;53.550;9.964;2023-05-16T11:06:50;25.90;25.80
37285;DHT22;23172;53.550;9.964;2023-05-16T11:12:00;24.30;27.80
37285;DHT22;23172;53.550;9.964;2023-05-16T11:17:06;25.20;28.70
37285;DHT22;23172;53.550;9.964;2023-05-16T11:22:12;31.00;25.50
37285;DHT22;23172;53.550;9.964;2023-05-16T11:27:24;35.00;22.40
37285;DHT22;23172;53.550;9.964;2023-05-16T11:32:26;36.80;20.70
37285;DHT22;23172;53.550;9.964;2023-05-16T11:37:29;39.10;19.60
37285;DHT22;23172;53.550;9.964;2023-05-16T11:42:35;39.90;18.70
37285;DHT22;23172;53.550;9.964;2023-05-16T11:47:38;39.00;18.60
37285;DHT22;23172;53.550;9.964;2023-05-16T11:52:44;40.80;18.00
37285;DHT22;23172;53.550;9.964;2023-05-16T11:57:47;41.20;17.30
37285;DHT22;23172;53.550;9.964;2023-05-16T12:02:50;39.90;17.30
37285;DHT22;23172;53.550;9.964;2023-05-16T12:07:54;36.90;18.40
37285;DHT22;23172;53.550;9.964;2023-05-16T12:12:57;37.00;18.40
37285;DHT22;23172;53.550;9.964;2023-05-16T12:17:59;33.10;20.20
37285;DHT22;23172;53.550;9.964;2023-05-16T12:23:03;32.10;22.20
37285;DHT22;23172;53.550;9.964;2023-05-16T12:28:05;33.90;21.10
37285;DHT22;23172;53.550;9.964;2023-05-16T12:33:08;35.50;19.90
37285;DHT22;23172;53.550;9.964;2023-05-16T12:38:13;36.30;19.20
37285;DHT22;23172;53.550;9.964;2023-05-16T12:43:16;36.70;18.70
37285;DHT22;23172;53.550;9.964;2023-05-16T12:48:19;36.40;18.80
37285;DHT22;23172;53.550;9.964;2023-05-16T12:53:23;34.40;19.70
37285;DHT22;23172;53.550;9.964;2023-05-16T12:58:27;32.50;21.10
37285;DHT22;23172;53.550;9.964;2023-05-16T13:03:31;30.80;22.20
37285;DHT22;23172;53.550;9.964;2023-05-16T13:08:35;28.40;25.00
37285;DHT22;23172;53.550;9.964;2023-05-16T13:13:37;28.30;25.00
37285;DHT22;23172;53.550;9.964;2023-05-16T13:18:38;28.00;26.10
37285;DHT22;23172;53.550;9.964;2023-05-16T13:23:42;28.50;26.00
37285;DHT22;23172;53.550;9.964;2023-05-16T13:28:43;28.90;25.30
37285;DHT22;23172;53.550;9.964;2023-05-16T13:33:45;26.50;26.70
37285;DHT22;23172;53.550;9.964;2023-05-16T13:38:49;24.00;29.10
37285;DHT22;23172;53.550;9.964;2023-05-16T13:43:50;23.00;30.30
37285;DHT22;23172;53.550;9.964;2023-05-16T13:48:52;24.00;29.70
37285;DHT22;23172;53.550;9.964;2023-05-16T13:53:55;24.40;28.90
37285;DHT22;23172;53.550;9.964;2023-05-16T13:58:58;24.70;28.20
37285;DHT22;23172;53.550;9.964;2023-05-16T14:04:00;23.30;29.20
37285;DHT22;23172;53.550;9.964;2023-05-16T14:09:03;22.20;32.60
37285;DHT22;23172;53.550;9.964;2023-05-16T14:14:05;21.80;32.80
37285;DHT22;23172;53.550;9.964;2023-05-16T14:19:07;21.60;32.70
37285;DHT22;23172;53.550;9.964;2023-05-16T14:24:10;21.40;32.90
37285;DHT22;23172;53.550;9.964;2023-05-16T14:29:12;21.30;33.20
37285;DHT22;23172;53.550;9.964;2023-05-16T14:34:14;22.10;32.10
37285;DHT22;23172;53.550;9.964;2023-05-16T14:39:17;22.30;32.30
37285;DHT22;23172;53.550;9.964;2023-05-16T14:44:20;22.20;32.90
37285;DHT22;23172;53.550;9.964;2023-05-16T14:49:24;21.30;34.10
37285;DHT22;23172;53.550;9.964;2023-05-16T14:54:28;20.70;35.00
37285;DHT22;23172;53.550;9.964;2023-05-16T14:59:30;20.40;35.10
37285;DHT22;23172;53.550;9.964;2023-05-16T15:04:32;20.50;34.40
37285;DHT22;23172;53.550;9.964;2023-05-16T15:09:35;20.50;34.20
37285;DHT22;23172;53.550;9.964;2023-05-16T15:14:37;20.30;35.30
37285;DHT22;23172;53.550;9.964;2023-05-16T15:19:39;20.10;35.90
37285;DHT22;23172;53.550;9.964;2023-05-16T15:24:42;20.10;37.00
37285;DHT22;23172;53.550;9.964;2023-05-16T15:29:44;19.90;37.40
37285;DHT22;23172;53.550;9.964;2023-05-16T15:34:46;19.70;38.20
37285;DHT22;23172;53.550;9.964;2023-05-16T15:39:49;19.60;38.60
37285;DHT22;23172;53.550;9.964;2023-05-16T15:44:51;19.40;39.20
37285;DHT22;23172;53.550;9.964;2023-05-16T15:49:52;18.80;41.50
37285;DHT22;23172;53.550;9.964;2023-05-16T15:59:58;18.50;45.20
37285;DHT22;23172;53.550;9.964;2023-05-16T16:05:00;18.40;45.20
37285;DHT22;23172;53.550;9.964;2023-05-16T16:10:04;18.30;44.80
37285;DHT22;23172;53.550;9.964;2023-05-16T16:15:07;18.30;44.40
37285;DHT22;23172;53.550;9.964;2023-05-16T16:20:10;18.20;44.10
37285;DHT22;23172;53.550;9.964;2023-05-16T16:25:13;18.00;44.10
37285;DHT22;23172;53.550;9.964;2023-05-16T16:30:15;17.80;44.10
37285;DHT22;23172;53.550;9.964;2023-05-16T16:35:17;17.80;44.30
37285;DHT22;23172;53.550;9.964;2023-05-16T16:40:20;17.50;44.20
37285;DHT22;23172;53.550;9.964;2023-05-16T16:45:22;17.50;44.40
37285;DHT22;23172;53.550;9.964;2023-05-16T16:50:24;17.30;45.00
37285;DHT22;23172;53.550;9.964;2023-05-16T16:55:28;17.30;45.10
37285;DHT22;23172;53.550;9.964;2023-05-16T17:00:29;17.10;46.10
37285;DHT22;23172;53.550;9.964;2023-05-16T17:05:32;16.90;46.90
37285;DHT22;23172;53.550;9.964;2023-05-16T17:10:35;16.80;48.10
37285;DHT22;23172;53.550;9.964;2023-05-16T17:15:37;16.60;49.70
37285;DHT22;23172;53.550;9.964;2023-05-16T17:20:39;16.60;51.00
37285;DHT22;23172;53.550;9.964;2023-05-16T17:25:42;16.60;51.90
37285;DHT22;23172;53.550;9.964;2023-05-16T17:30:44;16.60;53.00
37285;DHT22;23172;53.550;9.964;2023-05-16T17:35:49;16.30;55.00
37285;DHT22;23172;53.550;9.964;2023-05-16T17:40:53;16.10;56.60
37285;DHT22;23172;53.550;9.964;2023-05-16T17:45:55;16.00;56.90
37285;DHT22;23172;53.550;9.964;2023-05-16T17:50:57;16.10;58.00
37285;DHT22;23172;53.550;9.964;2023-05-16T17:56:00;16.10;58.40
37285;DHT22;23172;53.550;9.964;2023-05-16T18:01:02;16.10;58.40
37285;DHT22;23172;53.550;9.964;2023-05-16T18:06:06;16.10;58.80
37285;DHT22;23172;53.550;9.964;2023-05-16T18:11:09;16.10;59.10
37285;DHT22;23172;53.550;9.964;2023-05-16T18:16:11;16.00;59.80
37285;DHT22;23172;53.550;9.964;2023-05-16T18:21:13;15.90;60.10
37285;DHT22;23172;53.550;9.964;2023-05-16T18:26:16;15.80;62.00
37285;DHT22;23172;53.550;9.964;2023-05-16T18:31:18;15.60;62.90
37285;DHT22;23172;53.550;9.964;2023-05-16T18:36:21;15.60;63.20
37285;DHT22;23172;53.550;9.964;2023-05-16T18:41:24;15.40;64.80
37285;DHT22;23172;53.550;9.964;2023-05-16T18:46:26;15.40;64.50
37285;DHT22;23172;53.550;9.964;2023-05-16T18:51:28;15.20;65.60
37285;DHT22;23172;53.550;9.964;2023-05-16T18:56:31;15.10;66.20
37285;DHT22;23172;53.550;9.964;2023-05-16T19:01:33;15.10;66.70
37285;DHT22;23172;53.550;9.964;2023-05-16T19:06:36;15.00;68.00
37285;DHT22;23172;53.550;9.964;2023-05-16T19:11:39;14.90;68.00
37285;DHT22;23172;53.550;9.964;2023-05-16T19:16:41;14.80;68.70
37285;DHT22;23172;53.550;9.964;2023-05-16T19:21:43;14.80;69.10
37285;DHT22;23172;53.550;9.964;2023-05-16T19:26:46;14.80;68.80
37285;DHT22;23172;53.550;9.964;2023-05-16T19:31:48;14.80;69.40
37285;DHT22;23172;53.550;9.964;2023-05-16T19:36:50;14.80;69.30
37285;DHT22;23172;53.550;9.964;2023-05-16T19:41:53;14.80;70.00
37285;DHT22;23172;53.550;9.964;2023-05-16T19:46:55;14.70;70.30
37285;DHT22;23172;53.550;9.964;2023-05-16T19:51:57;14.60;71.70
37285;DHT22;23172;53.550;9.964;2023-05-16T19:57:00;14.60;71.90
37285;DHT22;23172;53.550;9.964;2023-05-16T20:02:02;14.70;72.10
37285;DHT22;23172;53.550;9.964;2023-05-16T20:07:04;14.70;72.00
37285;DHT22;23172;53.550;9.964;2023-05-16T20:12:08;14.70;72.60
37285;DHT22;23172;53.550;9.964;2023-05-16T20:17:12;14.60;73.20
37285;DHT22;23172;53.550;9.964;2023-05-16T20:22:14;14.60;74.10
37285;DHT22;23172;53.550;9.964;2023-05-16T20:27:17;14.50;74.30
37285;DHT22;23172;53.550;9.964;2023-05-16T20:32:21;14.50;75.20
37285;DHT22;23172;53.550;9.964;2023-05-16T20:37:23;14.40;75.30
37285;DHT22;23172;53.550;9.964;2023-05-16T20:42:27;14.40;75.50
37285;DHT22;23172;53.550;9.964;2023-05-16T20:47:29;14.30;75.60
37285;DHT22;23172;53.550;9.964;2023-05-16T20:52:31;14.20;76.20
37285;DHT22;23172;53.550;9.964;2023-05-16T20:57:34;14.20;76.90
37285;DHT22;23172;53.550;9.964;2023-05-16T21:02:36;14.10;76.90
37285;DHT22;23172;53.550;9.964;2023-05-16T21:07:38;14.20;77.00
37285;DHT22;23172;53.550;9.964;2023-05-16T21:12:41;14.10;77.30
37285;DHT22;23172;53.550;9.964;2023-05-16T21:17:43;14.10;78.10
37285;DHT22;23172;53.550;9.964;2023-05-16T21:22:45;14.10;78.80
37285;DHT22;23172;53.550;9.964;2023-05-16T21:27:48;14.00;79.00
37285;DHT22;23172;53.550;9.964;2023-05-16T21:32:50;14.10;79.20
37285;DHT22;23172;53.550;9.964;2023-05-16T21:37:52;14.10;79.20
37285;DHT22;23172;53.550;9.964;2023-05-16T21:42:55;14.10;80.20
37285;DHT22;23172;53.550;9.964;2023-05-16T21:47:57;14.00;80.30
37285;DHT22;23172;53.550;9.964;2023-05-16T21:52:59;14.00;81.70
37285;DHT22;23172;53.550;9.964;2023-05-16T21:58:02;14.00;81.00
37285;DHT22;23172;53.550;9.964;2023-05-16T22:03:04;14.10;81.10
37285;DHT22;23172;53.550;9.964;2023-05-16T22:08:06;14.00;81.40
37285;DHT22;23172;53.550;9.964;2023-05-16T22:13:09;14.10;81.90
37285;DHT22;23172;53.550;9.964;2023-05-16T22:18:11;14.10;81.70
37285;DHT22;23172;53.550;9.964;2023-05-16T22:23:13;14.20;81.80
37285;DHT22;23172;53.550;9.964;2023-05-16T22:28:16;14.00;82.50
37285;DHT22;23172;53.550;9.964;2023-05-16T22:33:18;13.90;83.30
37285;DHT22;23172;53.550;9.964;2023-05-16T22:38:21;13.90;83.40
37285;DHT22;23172;53.550;9.964;2023-05-16T22:43:25;14.00;83.40
37285;DHT22;23172;53.550;9.964;2023-05-16T22:48:26;14.00;83.90
37285;DHT22;23172;53.550;9.964;2023-05-16T22:53:28;13.90;84.40
37285;DHT22;23172;53.550;9.964;2023-05-16T22:58:32;13.90;84.40
37285;DHT22;23172;53.550;9.964;2023-05-16T23:03:33;13.90;84.40
37285;DHT22;23172;53.550;9.964;2023-05-16T23:08:35;13.90;85.20
37285;DHT22;23172;53.550;9.964;2023-05-16T23:13:38;14.00;84.10
37285;DHT22;23172;53.550;9.964;2023-05-16T23:18:40;13.90;83.90
37285;DHT22;23172;53.550;9.964;2023-05-16T23:23:42;13.90;83.70
37285;DHT22;23172;53.550;9.964;2023-05-16T23:28:45;13.90;84.00
37285;DHT22;23172;53.550;9.964;2023-05-16T23:33:47;13.80;84.30
37285;DHT22;23172;53.550;9.964;2023-05-16T23:38:49;13.80;84.00
37285;DHT22;23172;53.550;9.964;2023-05-16T23:43:52;13.80;83.80
37285;DHT22;23172;53.550;9.964;2023-05-16T23:48:54;13.70;83.80
37285;DHT22;23172;53.550;9.964;2023-05-16T23:53:57;13.70;84.20
